sensor_id;sensor_type;location;lat;lon;timestamp;P1;durP1;ratioP1;P2;durP2;ratioP2
56455;SDS011;42354;53.218;6.564;2022-10-19T00:03:31;11.93;;;1.55;;
56455;SDS011;42354;53.218;6.564;2022-10-19T00:05:58;7.90;;;1.67;;
56455;SDS011;42354;53.218;6.564;2022-10-19T00:08:23;8.13;;;1.70;;
56455;SDS011;42354;53.218;6.564;2022-10-19T00:10:49;10.82;;;1.60;;
56455;SDS011;42354;53.218;6.564;2022-10-19T00:13:14;12.63;;;1.30;;
56455;SDS011;42354;53.218;6.564;2022-10-19T00:15:40;10.10;;;1.50;;
56455;SDS011;42354;53.218;6.564;2022-10-19T00:18:06;6.88;;;1.30;;
56455;SDS011;42354;53.218;6.564;2022-10-19T00:20:33;10.05;;;1.67;;
56455;SDS011;42354;53.218;6.564;2022-10-19T00:22:59;10.65;;;1.60;;
56455;SDS011;42354;53.218;6.564;2022-10-19T00:25:25;6.63;;;1.30;;
56455;SDS011;42354;53.218;6.564;2022-10-19T00:27:50;8.15;;;1.70;;
56455;SDS011;42354;53.218;6.564;2022-10-19T00:30:16;8.35;;;1.27;;
56455;SDS011;42354;53.218;6.564;2022-10-19T00:32:41;10.48;;;1.30;;
56455;SDS011;42354;53.218;6.564;2022-10-19T00:35:07;11.75;;;1.52;;
56455;SDS011;42354;53.218;6.564;2022-10-19T00:37:33;9.52;;;1.27;;
56455;SDS011;42354;53.218;6.564;2022-10-19T00:39:58;8.45;;;0.90;;
56455;SDS011;42354;53.218;6.564;2022-10-19T00:42:23;3.15;;;0.95;;
56455;SDS011;42354;53.218;6.564;2022-10-19T00:47:14;4.85;;;1.10;;
56455;SDS011;42354;53.218;6.564;2022-10-19T00:49:43;5.32;;;1.08;;
56455;SDS011;42354;53.218;6.564;2022-10-19T00:52:11;9.10;;;1.60;;
56455;SDS011;42354;53.218;6.564;2022-10-19T00:54:39;8.70;;;1.08;;
56455;SDS011;42354;53.218;6.564;2022-10-19T00:57:07;5.78;;;1.35;;
56455;SDS011;42354;53.218;6.564;2022-10-19T00:59:33;11.25;;;1.45;;
56455;SDS011;42354;53.218;6.564;2022-10-19T01:02:00;4.60;;;1.48;;
56455;SDS011;42354;53.218;6.564;2022-10-19T01:04:27;5.40;;;1.15;;
56455;SDS011;42354;53.218;6.564;2022-10-19T01:06:54;10.63;;;1.10;;
56455;SDS011;42354;53.218;6.564;2022-10-19T01:09:21;11.07;;;1.27;;
56455;SDS011;42354;53.218;6.564;2022-10-19T01:25:40;6.78;;;0.80;;
56455;SDS011;42354;53.218;6.564;2022-10-19T01:44:39;9.65;;;1.25;;
56455;SDS011;42354;53.218;6.564;2022-10-19T01:47:14;8.70;;;1.33;;
56455;SDS011;42354;53.218;6.564;2022-10-19T01:52:19;7.43;;;1.10;;
56455;SDS011;42354;53.218;6.564;2022-10-19T01:54:49;11.63;;;1.33;;
56455;SDS011;42354;53.218;6.564;2022-10-19T01:57:39;6.13;;;1.20;;
56455;SDS011;42354;53.218;6.564;2022-10-19T02:00:10;10.90;;;1.10;;
56455;SDS011;42354;53.218;6.564;2022-10-19T02:02:39;10.88;;;1.38;;
56455;SDS011;42354;53.218;6.564;2022-10-19T02:05:11;11.10;;;1.27;;
56455;SDS011;42354;53.218;6.564;2022-10-19T02:07:39;10.75;;;1.23;;
56455;SDS011;42354;53.218;6.564;2022-10-19T02:10:09;10.95;;;1.00;;
56455;SDS011;42354;53.218;6.564;2022-10-19T02:12:34;7.70;;;1.00;;
56455;SDS011;42354;53.218;6.564;2022-10-19T02:15:02;5.45;;;0.85;;
56455;SDS011;42354;53.218;6.564;2022-10-19T02:17:35;10.57;;;1.17;;
56455;SDS011;42354;53.218;6.564;2022-10-19T02:20:04;5.97;;;0.85;;
56455;SDS011;42354;53.218;6.564;2022-10-19T02:22:30;9.32;;;1.10;;
56455;SDS011;42354;53.218;6.564;2022-10-19T02:24:56;9.13;;;1.00;;
56455;SDS011;42354;53.218;6.564;2022-10-19T02:27:21;9.75;;;1.70;;
56455;SDS011;42354;53.218;6.564;2022-10-19T02:29:47;8.25;;;1.02;;
56455;SDS011;42354;53.218;6.564;2022-10-19T02:32:13;9.93;;;1.02;;
56455;SDS011;42354;53.218;6.564;2022-10-19T02:34:38;11.90;;;1.30;;
56455;SDS011;42354;53.218;6.564;2022-10-19T02:37:04;13.70;;;1.20;;
56455;SDS011;42354;53.218;6.564;2022-10-19T02:39:30;9.95;;;1.20;;
56455;SDS011;42354;53.218;6.564;2022-10-19T02:41:58;8.85;;;1.17;;
56455;SDS011;42354;53.218;6.564;2022-10-19T02:44:29;9.05;;;1.30;;
56455;SDS011;42354;53.218;6.564;2022-10-19T02:47:02;10.10;;;1.27;;
56455;SDS011;42354;53.218;6.564;2022-10-19T02:49:37;10.45;;;1.35;;
56455;SDS011;42354;53.218;6.564;2022-10-19T02:52:06;8.60;;;1.17;;
56455;SDS011;42354;53.218;6.564;2022-10-19T02:54:33;7.55;;;1.52;;
56455;SDS011;42354;53.218;6.564;2022-10-19T02:56:59;12.43;;;2.28;;
56455;SDS011;42354;53.218;6.564;2022-10-19T02:59:24;14.32;;;1.42;;
56455;SDS011;42354;53.218;6.564;2022-10-19T03:01:50;10.73;;;0.77;;
56455;SDS011;42354;53.218;6.564;2022-10-19T03:04:16;15.32;;;1.35;;
56455;SDS011;42354;53.218;6.564;2022-10-19T03:06:41;7.05;;;1.20;;
56455;SDS011;42354;53.218;6.564;2022-10-19T03:09:07;10.68;;;1.45;;
56455;SDS011;42354;53.218;6.564;2022-10-19T03:11:34;12.55;;;1.92;;
56455;SDS011;42354;53.218;6.564;2022-10-19T03:13:59;16.90;;;1.80;;
56455;SDS011;42354;53.218;6.564;2022-10-19T03:16:24;8.30;;;1.20;;
56455;SDS011;42354;53.218;6.564;2022-10-19T03:18:50;11.20;;;1.15;;
56455;SDS011;42354;53.218;6.564;2022-10-19T03:21:15;12.38;;;1.40;;
56455;SDS011;42354;53.218;6.564;2022-10-19T03:23:41;15.18;;;1.35;;
56455;SDS011;42354;53.218;6.564;2022-10-19T03:26:07;12.23;;;1.65;;
56455;SDS011;42354;53.218;6.564;2022-10-19T03:28:35;14.55;;;1.63;;
56455;SDS011;42354;53.218;6.564;2022-10-19T03:31:01;17.83;;;1.45;;
56455;SDS011;42354;53.218;6.564;2022-10-19T03:33:26;11.23;;;1.10;;
56455;SDS011;42354;53.218;6.564;2022-10-19T03:38:55;12.13;;;1.45;;
56455;SDS011;42354;53.218;6.564;2022-10-19T03:41:23;9.88;;;1.10;;
56455;SDS011;42354;53.218;6.564;2022-10-19T03:43:50;8.70;;;1.70;;
56455;SDS011;42354;53.218;6.564;2022-10-19T03:46:16;11.05;;;1.05;;
56455;SDS011;42354;53.218;6.564;2022-10-19T03:48:42;13.02;;;1.50;;
56455;SDS011;42354;53.218;6.564;2022-10-19T03:51:09;10.85;;;1.30;;
56455;SDS011;42354;53.218;6.564;2022-10-19T03:53:36;11.30;;;1.40;;
56455;SDS011;42354;53.218;6.564;2022-10-19T03:58:30;6.43;;;1.08;;
56455;SDS011;42354;53.218;6.564;2022-10-19T04:00:57;11.10;;;1.25;;
56455;SDS011;42354;53.218;6.564;2022-10-19T04:03:22;7.70;;;1.20;;
56455;SDS011;42354;53.218;6.564;2022-10-19T04:05:48;8.82;;;0.90;;
56455;SDS011;42354;53.218;6.564;2022-10-19T04:08:13;8.13;;;1.15;;
56455;SDS011;42354;53.218;6.564;2022-10-19T04:10:39;13.70;;;1.30;;
56455;SDS011;42354;53.218;6.564;2022-10-19T04:13:04;10.60;;;1.88;;
56455;SDS011;42354;53.218;6.564;2022-10-19T04:15:29;9.70;;;0.95;;
56455;SDS011;42354;53.218;6.564;2022-10-19T04:17:55;10.52;;;1.10;;
56455;SDS011;42354;53.218;6.564;2022-10-19T04:20:20;10.98;;;1.38;;
56455;SDS011;42354;53.218;6.564;2022-10-19T04:22:45;7.60;;;1.20;;
56455;SDS011;42354;53.218;6.564;2022-10-19T04:25:11;16.60;;;1.33;;
56455;SDS011;42354;53.218;6.564;2022-10-19T04:27:36;16.05;;;2.15;;
56455;SDS011;42354;53.218;6.564;2022-10-19T04:30:02;19.58;;;1.40;;
56455;SDS011;42354;53.218;6.564;2022-10-19T04:32:28;11.20;;;1.30;;
56455;SDS011;42354;53.218;6.564;2022-10-19T04:34:54;13.88;;;1.65;;
56455;SDS011;42354;53.218;6.564;2022-10-19T04:37:20;14.00;;;1.27;;
56455;SDS011;42354;53.218;6.564;2022-10-19T04:39:45;6.63;;;1.10;;
56455;SDS011;42354;53.218;6.564;2022-10-19T04:42:10;8.23;;;0.90;;
56455;SDS011;42354;53.218;6.564;2022-10-19T04:44:36;14.02;;;1.48;;
56455;SDS011;42354;53.218;6.564;2022-10-19T04:47:01;11.00;;;1.60;;
56455;SDS011;42354;53.218;6.564;2022-10-19T04:49:26;9.38;;;1.63;;
56455;SDS011;42354;53.218;6.564;2022-10-19T04:51:52;10.75;;;1.65;;
56455;SDS011;42354;53.218;6.564;2022-10-19T04:54:17;14.85;;;1.80;;
56455;SDS011;42354;53.218;6.564;2022-10-19T04:56:42;12.10;;;1.23;;
56455;SDS011;42354;53.218;6.564;2022-10-19T04:59:08;9.25;;;1.80;;
56455;SDS011;42354;53.218;6.564;2022-10-19T05:01:33;9.85;;;1.30;;
56455;SDS011;42354;53.218;6.564;2022-10-19T05:04:00;13.77;;;1.35;;
56455;SDS011;42354;53.218;6.564;2022-10-19T05:06:26;11.98;;;1.20;;
56455;SDS011;42354;53.218;6.564;2022-10-19T05:08:52;13.43;;;1.98;;
56455;SDS011;42354;53.218;6.564;2022-10-19T05:11:18;12.18;;;1.63;;
56455;SDS011;42354;53.218;6.564;2022-10-19T05:13:43;12.68;;;1.00;;
56455;SDS011;42354;53.218;6.564;2022-10-19T05:16:12;10.85;;;1.23;;
56455;SDS011;42354;53.218;6.564;2022-10-19T05:18:39;10.27;;;1.25;;
56455;SDS011;42354;53.218;6.564;2022-10-19T05:23:33;18.92;;;1.85;;
56455;SDS011;42354;53.218;6.564;2022-10-19T05:25:59;13.82;;;1.25;;
56455;SDS011;42354;53.218;6.564;2022-10-19T05:28:26;12.95;;;1.10;;
56455;SDS011;42354;53.218;6.564;2022-10-19T05:30:51;12.77;;;1.63;;
56455;SDS011;42354;53.218;6.564;2022-10-19T05:33:17;14.93;;;1.90;;
56455;SDS011;42354;53.218;6.564;2022-10-19T05:35:42;7.65;;;1.15;;
56455;SDS011;42354;53.218;6.564;2022-10-19T05:38:07;14.02;;;1.40;;
56455;SDS011;42354;53.218;6.564;2022-10-19T05:40:33;16.27;;;1.73;;
56455;SDS011;42354;53.218;6.564;2022-10-19T05:42:58;8.20;;;1.20;;
56455;SDS011;42354;53.218;6.564;2022-10-19T05:45:24;12.65;;;1.20;;
56455;SDS011;42354;53.218;6.564;2022-10-19T05:47:50;10.00;;;1.27;;
56455;SDS011;42354;53.218;6.564;2022-10-19T05:50:15;15.65;;;1.80;;
56455;SDS011;42354;53.218;6.564;2022-10-19T05:52:41;8.52;;;1.67;;
56455;SDS011;42354;53.218;6.564;2022-10-19T05:55:06;14.32;;;1.20;;
56455;SDS011;42354;53.218;6.564;2022-10-19T05:57:32;15.32;;;1.80;;
56455;SDS011;42354;53.218;6.564;2022-10-19T05:59:57;13.40;;;1.25;;
56455;SDS011;42354;53.218;6.564;2022-10-19T06:02:23;16.10;;;2.13;;
56455;SDS011;42354;53.218;6.564;2022-10-19T06:04:48;14.45;;;1.80;;
56455;SDS011;42354;53.218;6.564;2022-10-19T06:07:14;18.10;;;1.42;;
56455;SDS011;42354;53.218;6.564;2022-10-19T06:09:39;13.30;;;1.58;;
56455;SDS011;42354;53.218;6.564;2022-10-19T06:12:05;12.65;;;1.52;;
56455;SDS011;42354;53.218;6.564;2022-10-19T06:14:30;20.80;;;2.45;;
56455;SDS011;42354;53.218;6.564;2022-10-19T06:16:55;12.45;;;1.30;;
56455;SDS011;42354;53.218;6.564;2022-10-19T06:19:21;23.30;;;1.95;;
56455;SDS011;42354;53.218;6.564;2022-10-19T06:21:47;19.65;;;2.25;;
56455;SDS011;42354;53.218;6.564;2022-10-19T06:24:12;12.48;;;1.92;;
56455;SDS011;42354;53.218;6.564;2022-10-19T06:26:37;13.18;;;1.92;;
56455;SDS011;42354;53.218;6.564;2022-10-19T06:29:03;11.02;;;1.05;;
56455;SDS011;42354;53.218;6.564;2022-10-19T06:31:30;15.52;;;1.67;;
56455;SDS011;42354;53.218;6.564;2022-10-19T06:33:57;28.50;;;2.65;;
56455;SDS011;42354;53.218;6.564;2022-10-19T06:36:28;22.65;;;1.92;;
56455;SDS011;42354;53.218;6.564;2022-10-19T06:38:55;16.00;;;1.67;;
56455;SDS011;42354;53.218;6.564;2022-10-19T06:41:23;15.05;;;1.88;;
56455;SDS011;42354;53.218;6.564;2022-10-19T06:43:52;11.05;;;1.00;;
56455;SDS011;42354;53.218;6.564;2022-10-19T06:46:22;10.17;;;1.10;;
56455;SDS011;42354;53.218;6.564;2022-10-19T06:48:53;9.65;;;1.52;;
56455;SDS011;42354;53.218;6.564;2022-10-19T06:51:21;9.52;;;1.10;;
56455;SDS011;42354;53.218;6.564;2022-10-19T06:53:50;7.93;;;0.93;;
56455;SDS011;42354;53.218;6.564;2022-10-19T06:56:20;6.18;;;1.25;;
56455;SDS011;42354;53.218;6.564;2022-10-19T06:58:48;8.02;;;1.65;;
56455;SDS011;42354;53.218;6.564;2022-10-19T07:01:14;10.45;;;1.40;;
56455;SDS011;42354;53.218;6.564;2022-10-19T07:03:39;11.40;;;1.20;;
56455;SDS011;42354;53.218;6.564;2022-10-19T07:06:08;15.65;;;1.30;;
56455;SDS011;42354;53.218;6.564;2022-10-19T07:08:36;11.52;;;1.30;;
56455;SDS011;42354;53.218;6.564;2022-10-19T07:11:13;11.15;;;1.35;;
56455;SDS011;42354;53.218;6.564;2022-10-19T07:13:43;9.38;;;1.42;;
56455;SDS011;42354;53.218;6.564;2022-10-19T07:16:12;17.85;;;1.73;;
56455;SDS011;42354;53.218;6.564;2022-10-19T07:18:40;11.50;;;1.13;;
56455;SDS011;42354;53.218;6.564;2022-10-19T07:21:07;9.43;;;1.48;;
56455;SDS011;42354;53.218;6.564;2022-10-19T07:23:38;12.38;;;0.95;;
56455;SDS011;42354;53.218;6.564;2022-10-19T07:26:09;12.35;;;1.33;;
56455;SDS011;42354;53.218;6.564;2022-10-19T07:28:38;7.03;;;1.20;;
56455;SDS011;42354;53.218;6.564;2022-10-19T07:31:08;14.02;;;1.48;;
56455;SDS011;42354;53.218;6.564;2022-10-19T07:33:35;16.63;;;1.70;;
56455;SDS011;42354;53.218;6.564;2022-10-19T07:36:01;11.13;;;1.50;;
56455;SDS011;42354;53.218;6.564;2022-10-19T07:38:31;15.85;;;1.73;;
56455;SDS011;42354;53.218;6.564;2022-10-19T07:41:17;11.18;;;1.15;;
56455;SDS011;42354;53.218;6.564;2022-10-19T07:43:49;9.82;;;1.27;;
56455;SDS011;42354;53.218;6.564;2022-10-19T07:46:37;8.43;;;1.20;;
56455;SDS011;42354;53.218;6.564;2022-10-19T07:49:07;8.80;;;1.13;;
56455;SDS011;42354;53.218;6.564;2022-10-19T07:51:37;9.98;;;1.20;;
56455;SDS011;42354;53.218;6.564;2022-10-19T07:54:12;9.15;;;1.40;;
56455;SDS011;42354;53.218;6.564;2022-10-19T07:56:38;6.78;;;1.02;;
56455;SDS011;42354;53.218;6.564;2022-10-19T07:59:04;6.45;;;0.95;;
56455;SDS011;42354;53.218;6.564;2022-10-19T08:01:34;11.52;;;2.35;;
56455;SDS011;42354;53.218;6.564;2022-10-19T08:04:02;6.53;;;1.33;;
56455;SDS011;42354;53.218;6.564;2022-10-19T08:06:28;10.68;;;1.10;;
56455;SDS011;42354;53.218;6.564;2022-10-19T08:08:53;13.75;;;1.70;;
56455;SDS011;42354;53.218;6.564;2022-10-19T08:11:24;14.75;;;2.20;;
56455;SDS011;42354;53.218;6.564;2022-10-19T08:13:51;8.82;;;1.13;;
56455;SDS011;42354;53.218;6.564;2022-10-19T08:16:22;9.57;;;1.58;;
56455;SDS011;42354;53.218;6.564;2022-10-19T08:18:54;22.17;;;2.50;;
56455;SDS011;42354;53.218;6.564;2022-10-19T08:21:22;9.50;;;1.60;;
56455;SDS011;42354;53.218;6.564;2022-10-19T08:23:48;8.77;;;1.40;;
56455;SDS011;42354;53.218;6.564;2022-10-19T08:26:13;8.32;;;1.20;;
56455;SDS011;42354;53.218;6.564;2022-10-19T08:28:38;16.23;;;1.27;;
56455;SDS011;42354;53.218;6.564;2022-10-19T08:31:14;11.75;;;1.65;;
56455;SDS011;42354;53.218;6.564;2022-10-19T08:33:42;10.13;;;1.30;;
56455;SDS011;42354;53.218;6.564;2022-10-19T08:36:09;17.67;;;1.50;;
56455;SDS011;42354;53.218;6.564;2022-10-19T08:38:37;10.43;;;1.30;;
56455;SDS011;42354;53.218;6.564;2022-10-19T08:49:02;10.85;;;1.65;;
56455;SDS011;42354;53.218;6.564;2022-10-19T08:51:29;7.00;;;1.27;;
56455;SDS011;42354;53.218;6.564;2022-10-19T08:54:01;11.30;;;1.38;;
56455;SDS011;42354;53.218;6.564;2022-10-19T08:56:39;13.13;;;1.80;;
56455;SDS011;42354;53.218;6.564;2022-10-19T08:59:12;6.78;;;1.30;;
56455;SDS011;42354;53.218;6.564;2022-10-19T09:01:49;15.02;;;1.63;;
56455;SDS011;42354;53.218;6.564;2022-10-19T09:04:28;11.05;;;1.15;;
56455;SDS011;42354;53.218;6.564;2022-10-19T09:09:43;9.27;;;1.40;;
56455;SDS011;42354;53.218;6.564;2022-10-19T09:12:14;10.95;;;1.35;;
56455;SDS011;42354;53.218;6.564;2022-10-19T09:14:54;10.07;;;1.30;;
56455;SDS011;42354;53.218;6.564;2022-10-19T09:17:23;12.15;;;1.77;;
56455;SDS011;42354;53.218;6.564;2022-10-19T09:19:49;9.20;;;1.40;;
56455;SDS011;42354;53.218;6.564;2022-10-19T09:22:19;6.80;;;1.40;;
56455;SDS011;42354;53.218;6.564;2022-10-19T09:24:54;13.18;;;1.80;;
56455;SDS011;42354;53.218;6.564;2022-10-19T09:27:25;8.95;;;1.40;;
56455;SDS011;42354;53.218;6.564;2022-10-19T09:29:58;10.77;;;1.55;;
56455;SDS011;42354;53.218;6.564;2022-10-19T09:32:31;13.50;;;1.60;;
56455;SDS011;42354;53.218;6.564;2022-10-19T09:35:01;9.40;;;1.77;;
56455;SDS011;42354;53.218;6.564;2022-10-19T09:37:30;10.70;;;1.60;;
56455;SDS011;42354;53.218;6.564;2022-10-19T09:40:01;10.18;;;1.50;;
56455;SDS011;42354;53.218;6.564;2022-10-19T09:42:31;11.68;;;1.35;;
56455;SDS011;42354;53.218;6.564;2022-10-19T09:44:58;9.60;;;1.33;;
56455;SDS011;42354;53.218;6.564;2022-10-19T09:50:05;9.50;;;1.63;;
56455;SDS011;42354;53.218;6.564;2022-10-19T09:52:35;6.00;;;0.70;;
56455;SDS011;42354;53.218;6.564;2022-10-19T09:57:46;11.13;;;1.40;;
56455;SDS011;42354;53.218;6.564;2022-10-19T10:00:19;10.95;;;1.65;;
56455;SDS011;42354;53.218;6.564;2022-10-19T10:02:48;11.20;;;1.05;;
56455;SDS011;42354;53.218;6.564;2022-10-19T10:05:37;9.60;;;1.30;;
56455;SDS011;42354;53.218;6.564;2022-10-19T10:08:10;12.73;;;1.55;;
56455;SDS011;42354;53.218;6.564;2022-10-19T10:10:41;13.77;;;1.58;;
56455;SDS011;42354;53.218;6.564;2022-10-19T10:13:13;7.18;;;1.02;;
56455;SDS011;42354;53.218;6.564;2022-10-19T10:15:42;11.27;;;1.17;;
56455;SDS011;42354;53.218;6.564;2022-10-19T10:18:15;12.88;;;1.83;;
56455;SDS011;42354;53.218;6.564;2022-10-19T10:29:17;10.48;;;1.48;;
56455;SDS011;42354;53.218;6.564;2022-10-19T10:31:45;14.77;;;1.10;;
56455;SDS011;42354;53.218;6.564;2022-10-19T10:34:16;10.93;;;1.73;;
56455;SDS011;42354;53.218;6.564;2022-10-19T10:36:52;9.00;;;1.02;;
56455;SDS011;42354;53.218;6.564;2022-10-19T10:39:19;7.97;;;1.77;;
56455;SDS011;42354;53.218;6.564;2022-10-19T10:41:50;8.35;;;1.10;;
56455;SDS011;42354;53.218;6.564;2022-10-19T10:44:27;5.95;;;1.13;;
56455;SDS011;42354;53.218;6.564;2022-10-19T10:46:55;9.85;;;1.13;;
56455;SDS011;42354;53.218;6.564;2022-10-19T10:49:33;10.57;;;1.20;;
56455;SDS011;42354;53.218;6.564;2022-10-19T10:52:10;9.60;;;1.35;;
56455;SDS011;42354;53.218;6.564;2022-10-19T10:54:55;9.68;;;1.35;;
56455;SDS011;42354;53.218;6.564;2022-10-19T10:57:45;10.73;;;1.80;;
56455;SDS011;42354;53.218;6.564;2022-10-19T11:00:29;5.60;;;1.15;;
56455;SDS011;42354;53.218;6.564;2022-10-19T11:02:56;8.35;;;1.13;;
56455;SDS011;42354;53.218;6.564;2022-10-19T11:05:45;10.63;;;1.27;;
56455;SDS011;42354;53.218;6.564;2022-10-19T11:11:53;14.70;;;3.70;;
56455;SDS011;42354;53.218;6.564;2022-10-19T11:14:28;11.88;;;1.70;;
56455;SDS011;42354;53.218;6.564;2022-10-19T11:17:17;11.13;;;2.00;;
56455;SDS011;42354;53.218;6.564;2022-10-19T11:19:49;7.65;;;1.50;;
56455;SDS011;42354;53.218;6.564;2022-10-19T11:30:36;9.80;;;1.35;;
56455;SDS011;42354;53.218;6.564;2022-10-19T11:36:03;6.85;;;1.10;;
56455;SDS011;42354;53.218;6.564;2022-10-19T11:41:39;12.32;;;1.55;;
56455;SDS011;42354;53.218;6.564;2022-10-19T11:55:19;5.13;;;1.20;;
56455;SDS011;42354;53.218;6.564;2022-10-19T12:00:42;9.80;;;1.40;;
56455;SDS011;42354;53.218;6.564;2022-10-19T12:03:28;9.45;;;1.20;;
56455;SDS011;42354;53.218;6.564;2022-10-19T12:09:02;7.80;;;1.42;;
56455;SDS011;42354;53.218;6.564;2022-10-19T12:14:31;5.68;;;1.15;;
56455;SDS011;42354;53.218;6.564;2022-10-19T12:17:04;11.18;;;2.00;;
56455;SDS011;42354;53.218;6.564;2022-10-19T12:19:45;9.77;;;1.70;;
56455;SDS011;42354;53.218;6.564;2022-10-19T12:22:16;10.77;;;1.38;;
56455;SDS011;42354;53.218;6.564;2022-10-19T12:24:46;10.95;;;1.35;;
56455;SDS011;42354;53.218;6.564;2022-10-19T12:27:13;12.05;;;1.63;;
56455;SDS011;42354;53.218;6.564;2022-10-19T12:29:43;6.90;;;1.48;;
56455;SDS011;42354;53.218;6.564;2022-10-19T12:32:12;7.18;;;1.88;;
56455;SDS011;42354;53.218;6.564;2022-10-19T12:37:27;9.50;;;1.48;;
56455;SDS011;42354;53.218;6.564;2022-10-19T12:46:23;8.98;;;1.92;;
56455;SDS011;42354;53.218;6.564;2022-10-19T12:49:07;8.85;;;1.33;;
56455;SDS011;42354;53.218;6.564;2022-10-19T12:51:59;5.38;;;1.27;;
56455;SDS011;42354;53.218;6.564;2022-10-19T12:54:26;11.18;;;1.98;;
56455;SDS011;42354;53.218;6.564;2022-10-19T12:56:56;11.07;;;1.95;;
56455;SDS011;42354;53.218;6.564;2022-10-19T12:59:31;10.48;;;1.60;;
56455;SDS011;42354;53.218;6.564;2022-10-19T13:02:14;9.00;;;1.70;;
56455;SDS011;42354;53.218;6.564;2022-10-19T13:04:51;10.77;;;1.63;;
56455;SDS011;42354;53.218;6.564;2022-10-19T13:07:17;8.10;;;1.35;;
56455;SDS011;42354;53.218;6.564;2022-10-19T13:09:44;9.02;;;1.55;;
56455;SDS011;42354;53.218;6.564;2022-10-19T13:14:44;7.15;;;1.45;;
56455;SDS011;42354;53.218;6.564;2022-10-19T13:18:00;11.02;;;1.48;;
56455;SDS011;42354;53.218;6.564;2022-10-19T13:25:35;9.15;;;1.40;;
56455;SDS011;42354;53.218;6.564;2022-10-19T13:36:09;7.65;;;1.52;;
56455;SDS011;42354;53.218;6.564;2022-10-19T13:44:05;11.15;;;1.60;;
56455;SDS011;42354;53.218;6.564;2022-10-19T13:47:06;8.20;;;1.40;;
56455;SDS011;42354;53.218;6.564;2022-10-19T13:52:41;11.52;;;1.83;;
56455;SDS011;42354;53.218;6.564;2022-10-19T13:58:29;7.28;;;1.55;;
56455;SDS011;42354;53.218;6.564;2022-10-19T14:01:17;6.00;;;1.50;;
56455;SDS011;42354;53.218;6.564;2022-10-19T14:04:09;8.05;;;1.60;;
56455;SDS011;42354;53.218;6.564;2022-10-19T14:06:55;9.35;;;1.55;;
56455;SDS011;42354;53.218;6.564;2022-10-19T14:12:14;6.43;;;1.60;;
56455;SDS011;42354;53.218;6.564;2022-10-19T14:14:45;9.63;;;1.52;;
56455;SDS011;42354;53.218;6.564;2022-10-19T14:17:15;7.07;;;1.20;;
56455;SDS011;42354;53.218;6.564;2022-10-19T14:19:44;9.40;;;1.60;;
56455;SDS011;42354;53.218;6.564;2022-10-19T14:22:20;6.33;;;1.23;;
56455;SDS011;42354;53.218;6.564;2022-10-19T14:25:16;10.27;;;1.95;;
56455;SDS011;42354;53.218;6.564;2022-10-19T14:27:45;8.63;;;1.40;;
56455;SDS011;42354;53.218;6.564;2022-10-19T14:30:33;9.15;;;1.80;;
56455;SDS011;42354;53.218;6.564;2022-10-19T14:33:06;8.68;;;1.20;;
56455;SDS011;42354;53.218;6.564;2022-10-19T14:35:38;9.25;;;1.48;;
56455;SDS011;42354;53.218;6.564;2022-10-19T14:38:06;7.45;;;1.20;;
56455;SDS011;42354;53.218;6.564;2022-10-19T14:40:41;4.97;;;1.40;;
56455;SDS011;42354;53.218;6.564;2022-10-19T14:43:17;9.57;;;1.20;;
56455;SDS011;42354;53.218;6.564;2022-10-19T14:48:35;8.55;;;2.05;;
56455;SDS011;42354;53.218;6.564;2022-10-19T14:51:48;4.70;;;1.70;;
56455;SDS011;42354;53.218;6.564;2022-10-19T14:54:10;6.93;;;1.67;;
56455;SDS011;42354;53.218;6.564;2022-10-19T15:01:51;11.35;;;2.35;;
56455;SDS011;42354;53.218;6.564;2022-10-19T15:04:19;12.38;;;2.50;;
56455;SDS011;42354;53.218;6.564;2022-10-19T15:07:00;8.35;;;2.42;;
56455;SDS011;42354;53.218;6.564;2022-10-19T15:09:29;11.68;;;2.85;;
56455;SDS011;42354;53.218;6.564;2022-10-19T15:12:13;11.55;;;4.10;;
56455;SDS011;42354;53.218;6.564;2022-10-19T15:14:44;12.32;;;2.92;;
56455;SDS011;42354;53.218;6.564;2022-10-19T16:53:34;16.05;;;9.27;;
56455;SDS011;42354;53.218;6.564;2022-10-19T16:56:05;20.13;;;10.32;;
56455;SDS011;42354;53.218;6.564;2022-10-19T16:58:36;18.70;;;9.65;;
56455;SDS011;42354;53.218;6.564;2022-10-19T17:01:05;23.00;;;9.98;;
56455;SDS011;42354;53.218;6.564;2022-10-19T17:03:34;16.38;;;9.40;;
56455;SDS011;42354;53.218;6.564;2022-10-19T17:06:03;16.50;;;8.77;;
56455;SDS011;42354;53.218;6.564;2022-10-19T17:08:30;22.15;;;8.45;;
56455;SDS011;42354;53.218;6.564;2022-10-19T17:10:55;16.75;;;8.10;;
56455;SDS011;42354;53.218;6.564;2022-10-19T17:13:22;19.65;;;8.00;;
56455;SDS011;42354;53.218;6.564;2022-10-19T17:15:48;25.63;;;8.55;;
56455;SDS011;42354;53.218;6.564;2022-10-19T17:18:13;14.07;;;7.00;;
56455;SDS011;42354;53.218;6.564;2022-10-19T17:20:38;16.33;;;6.88;;
56455;SDS011;42354;53.218;6.564;2022-10-19T17:23:04;15.13;;;7.10;;
56455;SDS011;42354;53.218;6.564;2022-10-19T17:25:29;11.40;;;5.93;;
56455;SDS011;42354;53.218;6.564;2022-10-19T17:27:54;11.23;;;5.70;;
56455;SDS011;42354;53.218;6.564;2022-10-19T17:30:19;13.98;;;6.05;;
56455;SDS011;42354;53.218;6.564;2022-10-19T17:32:45;14.98;;;6.35;;
56455;SDS011;42354;53.218;6.564;2022-10-19T17:35:10;14.43;;;5.70;;
56455;SDS011;42354;53.218;6.564;2022-10-19T17:37:35;13.13;;;5.07;;
56455;SDS011;42354;53.218;6.564;2022-10-19T17:40:02;13.20;;;5.85;;
56455;SDS011;42354;53.218;6.564;2022-10-19T17:42:28;14.50;;;5.82;;
56455;SDS011;42354;53.218;6.564;2022-10-19T17:44:55;7.57;;;4.78;;
56455;SDS011;42354;53.218;6.564;2022-10-19T17:47:20;12.63;;;5.50;;
56455;SDS011;42354;53.218;6.564;2022-10-19T17:49:45;15.10;;;5.40;;
56455;SDS011;42354;53.218;6.564;2022-10-19T17:52:11;23.70;;;6.90;;
56455;SDS011;42354;53.218;6.564;2022-10-19T17:54:36;15.63;;;5.68;;
56455;SDS011;42354;53.218;6.564;2022-10-19T17:57:02;12.40;;;4.65;;
56455;SDS011;42354;53.218;6.564;2022-10-19T17:59:27;11.45;;;5.68;;
56455;SDS011;42354;53.218;6.564;2022-10-19T18:01:53;11.90;;;5.57;;
56455;SDS011;42354;53.218;6.564;2022-10-19T18:04:18;10.75;;;4.40;;
56455;SDS011;42354;53.218;6.564;2022-10-19T18:06:43;15.27;;;5.32;;
56455;SDS011;42354;53.218;6.564;2022-10-19T18:09:08;9.15;;;4.43;;
56455;SDS011;42354;53.218;6.564;2022-10-19T18:11:35;10.50;;;3.47;;
56455;SDS011;42354;53.218;6.564;2022-10-19T18:14:03;9.00;;;3.92;;
56455;SDS011;42354;53.218;6.564;2022-10-19T18:16:36;11.38;;;4.03;;
56455;SDS011;42354;53.218;6.564;2022-10-19T18:19:10;16.88;;;5.82;;
56455;SDS011;42354;53.218;6.564;2022-10-19T18:21:39;15.38;;;5.45;;
56455;SDS011;42354;53.218;6.564;2022-10-19T18:24:07;11.75;;;3.90;;
56455;SDS011;42354;53.218;6.564;2022-10-19T18:26:36;14.15;;;3.67;;
56455;SDS011;42354;53.218;6.564;2022-10-19T18:29:07;15.63;;;4.05;;
56455;SDS011;42354;53.218;6.564;2022-10-19T18:31:36;12.05;;;3.70;;
56455;SDS011;42354;53.218;6.564;2022-10-19T18:34:04;10.30;;;4.18;;
56455;SDS011;42354;53.218;6.564;2022-10-19T18:36:31;12.57;;;3.47;;
56455;SDS011;42354;53.218;6.564;2022-10-19T18:38:58;14.10;;;3.85;;
56455;SDS011;42354;53.218;6.564;2022-10-19T18:41:25;12.40;;;4.18;;
56455;SDS011;42354;53.218;6.564;2022-10-19T18:43:53;14.80;;;3.53;;
56455;SDS011;42354;53.218;6.564;2022-10-19T18:46:20;10.43;;;4.00;;
56455;SDS011;42354;53.218;6.564;2022-10-19T18:48:47;14.98;;;4.65;;
56455;SDS011;42354;53.218;6.564;2022-10-19T18:51:13;12.30;;;4.95;;
56455;SDS011;42354;53.218;6.564;2022-10-19T18:53:39;13.50;;;6.05;;
56455;SDS011;42354;53.218;6.564;2022-10-19T18:56:06;12.77;;;5.85;;
56455;SDS011;42354;53.218;6.564;2022-10-19T18:58:33;11.52;;;5.50;;
56455;SDS011;42354;53.218;6.564;2022-10-19T19:01:03;12.70;;;5.60;;
56455;SDS011;42354;53.218;6.564;2022-10-19T19:03:30;11.25;;;5.22;;
56455;SDS011;42354;53.218;6.564;2022-10-19T19:06:06;15.48;;;5.95;;